createdAt,value
2023-02-12T00:03:56.410Z,100.00
2023-02-12T00:08:59.204Z,100.00
2023-02-12T00:14:03.098Z,100.00
2023-02-12T00:19:05.212Z,100.00
2023-02-12T00:24:07.793Z,99.85
2023-02-12T00:29:10.999Z,100.00
2023-02-12T00:34:13.294Z,99.46
2023-02-12T00:39:16.324Z,100.00
2023-02-12T00:44:18.443Z,99.30
2023-02-12T00:49:20.826Z,99.84
2023-02-12T00:54:22.954Z,99.95
2023-02-12T00:59:26.233Z,100.00
2023-02-12T01:04:28.372Z,100.00
2023-02-12T01:09:30.697Z,100.00
2023-02-12T01:14:34.036Z,100.00
2023-02-12T01:19:36.582Z,100.00
2023-02-12T01:24:38.995Z,100.00
2023-02-12T01:29:44.814Z,99.81
2023-02-12T01:34:47.117Z,99.20
2023-02-12T01:39:49.377Z,97.92
2023-02-12T01:45:13.541Z,97.69
2023-02-12T01:50:20.361Z,97.26
2023-02-12T01:55:22.767Z,97.82
2023-02-12T02:00:25.681Z,98.46
2023-02-12T02:05:41.511Z,100.00
2023-02-12T02:10:44.334Z,100.00
2023-02-12T02:15:51.565Z,100.00
2023-02-12T02:21:18.449Z,100.00
2023-02-12T02:26:39.272Z,100.00
2023-02-12T02:31:50.696Z,100.00
2023-02-12T02:37:48.184Z,100.00
2023-02-12T02:43:16.530Z,100.00
2023-02-12T02:48:35.453Z,100.00
2023-02-12T02:53:53.000Z,100.00
2023-02-12T02:59:13.379Z,100.00
2023-02-12T03:04:24.834Z,100.00
2023-02-12T03:09:34.423Z,100.00
2023-02-12T03:14:40.592Z,100.00
2023-02-12T03:19:47.774Z,99.06
2023-02-12T03:25:15.202Z,98.71
2023-02-12T03:30:17.683Z,96.46
2023-02-12T03:35:32.300Z,94.79
2023-02-12T03:40:51.492Z,87.82
2023-02-12T03:46:28.188Z,82.71
2023-02-12T03:51:38.695Z,75.00
2023-02-12T03:56:52.505Z,70.20
2023-02-12T04:01:58.088Z,67.19
2023-02-12T04:07:01.242Z,66.76
2023-02-12T04:12:31.299Z,62.85
2023-02-12T04:18:02.869Z,62.16
2023-02-12T04:23:14.425Z,60.54
2023-02-12T04:28:25.856Z,62.02
2023-02-12T04:33:36.409Z,61.47
2023-02-12T04:38:50.406Z,60.68
2023-02-12T04:43:52.580Z,59.27
2023-02-12T04:48:58.325Z,58.03
2023-02-12T04:54:00.520Z,58.72
2023-02-12T04:59:03.012Z,57.64
2023-02-12T05:04:06.858Z,56.79
2023-02-12T05:09:13.548Z,58.35
2023-02-12T05:14:16.213Z,56.97
2023-02-12T05:19:18.252Z,58.42
2023-02-12T05:24:20.450Z,60.45
2023-02-12T05:29:22.762Z,58.17
2023-02-12T05:34:24.915Z,59.41
2023-02-12T05:39:27.036Z,59.42
2023-02-12T05:44:29.328Z,61.67
2023-02-12T05:49:31.568Z,60.84
2023-02-12T05:54:33.924Z,59.19
2023-02-12T05:59:36.157Z,58.96
2023-02-12T06:04:38.234Z,60.12
2023-02-12T06:09:40.420Z,57.48
2023-02-12T06:14:43.285Z,58.04
2023-02-12T06:19:45.564Z,57.19
2023-02-12T06:24:47.884Z,56.77
2023-02-12T06:29:50.271Z,56.56
2023-02-12T06:34:52.662Z,55.79
2023-02-12T06:39:54.871Z,57.63
2023-02-12T06:44:56.932Z,56.72
2023-02-12T06:49:59.286Z,59.07
2023-02-12T06:55:01.634Z,56.94
2023-02-12T07:00:04.942Z,55.57
2023-02-12T07:05:07.158Z,56.25
2023-02-12T07:10:10.001Z,57.94
2023-02-12T07:15:12.898Z,56.68
2023-02-12T07:20:15.193Z,56.25
2023-02-12T07:25:17.382Z,55.59
2023-02-12T07:30:19.976Z,54.07
2023-02-12T07:35:22.250Z,51.91
2023-02-12T07:40:24.474Z,51.59
2023-02-12T07:45:26.892Z,51.55
2023-02-12T07:50:29.211Z,51.37
2023-02-12T07:55:31.778Z,51.63
2023-02-12T08:00:33.973Z,50.67
2023-02-12T08:05:36.182Z,49.30
2023-02-12T08:10:38.324Z,47.24
2023-02-12T08:15:40.766Z,46.94
2023-02-12T08:20:42.897Z,48.46
2023-02-12T08:25:45.127Z,47.76
2023-02-12T08:30:47.416Z,46.95
2023-02-12T08:35:49.780Z,47.27
2023-02-12T08:40:51.915Z,47.02
2023-02-12T08:45:55.647Z,48.24
2023-02-12T08:51:11.709Z,48.12
2023-02-12T08:56:16.990Z,47.01
2023-02-12T09:01:22.595Z,46.77
2023-02-12T09:06:28.053Z,44.47
2023-02-12T09:11:33.166Z,42.18
2023-02-12T09:16:37.337Z,42.73
2023-02-12T09:21:39.700Z,41.48
2023-02-12T09:26:42.156Z,42.47
2023-02-12T09:31:44.568Z,42.31
2023-02-12T09:36:46.756Z,43.05
2023-02-12T09:42:07.336Z,41.66
2023-02-12T09:47:27.156Z,40.82
2023-02-12T09:52:29.726Z,43.11
2023-02-12T09:57:36.656Z,40.66
2023-02-12T10:02:40.457Z,36.78
2023-02-12T10:07:56.797Z,36.05
2023-02-12T10:13:11.360Z,34.42
2023-02-12T10:18:42.643Z,34.59
2023-02-12T10:24:01.009Z,33.85
2023-02-12T10:29:15.138Z,36.17
2023-02-12T10:34:32.954Z,39.28
2023-02-12T10:39:46.530Z,37.87
2023-02-12T10:44:48.856Z,38.03
2023-02-12T10:50:02.301Z,36.56
2023-02-12T10:55:33.488Z,39.19
2023-02-12T11:00:38.146Z,39.53
2023-02-12T11:05:42.846Z,39.48
2023-02-12T11:10:45.278Z,40.76
2023-02-12T11:15:49.804Z,39.17
2023-02-12T11:20:56.412Z,39.29
2023-02-12T11:26:21.697Z,38.75
2023-02-12T11:31:32.047Z,39.56
2023-02-12T11:36:38.937Z,38.89
2023-02-12T11:41:42.412Z,40.02
2023-02-12T11:47:02.293Z,40.57
2023-02-12T11:52:05.347Z,39.11
2023-02-12T11:57:07.767Z,41.23
2023-02-12T12:02:29.564Z,41.48
2023-02-12T12:07:37.029Z,42.71
2023-02-12T12:12:57.252Z,41.82
2023-02-12T12:18:30.582Z,43.69
2023-02-12T12:23:38.945Z,42.78
2023-02-12T12:28:48.287Z,44.65
2023-02-12T12:33:57.379Z,43.36
2023-02-12T12:39:04.590Z,43.74
2023-02-12T12:44:22.779Z,44.71
2023-02-12T12:49:48.347Z,44.70
2023-02-12T12:55:24.589Z,44.75
2023-02-12T13:00:53.393Z,43.26
2023-02-12T13:06:20.599Z,44.01
2023-02-12T13:11:36.311Z,45.00
2023-02-12T13:16:50.057Z,45.98
2023-02-12T13:22:15.962Z,46.94
2023-02-12T13:27:32.605Z,48.58
2023-02-12T13:32:43.499Z,49.11
2023-02-12T13:37:53.281Z,48.48
2023-02-12T13:43:15.872Z,48.72
2023-02-12T13:48:25.555Z,49.02
2023-02-12T13:53:52.940Z,50.48
2023-02-12T13:59:01.131Z,50.95
2023-02-12T14:04:22.267Z,52.06
2023-02-12T14:09:32.756Z,55.00
2023-02-12T14:14:40.958Z,55.11
2023-02-12T14:20:06.275Z,59.57
2023-02-12T14:25:14.732Z,57.95
2023-02-12T14:30:16.918Z,63.07
2023-02-12T14:35:35.815Z,56.42
2023-02-12T14:40:44.545Z,59.02
2023-02-12T14:45:46.847Z,59.34
2023-02-12T14:50:52.480Z,60.92
2023-02-12T14:55:56.403Z,64.19
2023-02-12T15:01:01.822Z,64.61
2023-02-12T15:06:23.236Z,66.82
2023-02-12T15:11:43.436Z,68.04
2023-02-12T15:17:11.104Z,70.55
2023-02-12T15:22:23.086Z,69.93
2023-02-12T15:27:25.374Z,71.24
2023-02-12T15:32:30.160Z,71.82
2023-02-12T15:37:41.050Z,71.68
2023-02-12T15:43:00.452Z,72.28
2023-02-12T15:48:19.883Z,70.75
2023-02-12T15:53:26.415Z,71.52
2023-02-12T15:58:46.704Z,74.19
2023-02-12T16:03:57.081Z,72.68
2023-02-12T16:09:03.966Z,76.74
2023-02-12T16:14:19.368Z,75.40
2023-02-12T16:19:24.657Z,73.25
2023-02-12T16:24:33.193Z,76.09
2023-02-12T16:29:44.022Z,75.82
2023-02-12T16:34:46.610Z,75.57
2023-02-12T16:39:48.800Z,75.68
2023-02-12T16:44:50.998Z,77.88
2023-02-12T16:49:57.108Z,82.52
2023-02-12T16:54:59.528Z,82.87
2023-02-12T17:00:01.893Z,84.73
2023-02-12T17:05:08.951Z,85.60
2023-02-12T17:10:15.530Z,85.00
2023-02-12T17:15:26.140Z,85.25
2023-02-12T17:20:28.510Z,86.95
2023-02-12T17:25:31.365Z,89.76
2023-02-12T17:30:33.586Z,88.23
2023-02-12T17:35:38.346Z,89.66
2023-02-12T17:40:40.535Z,89.13
2023-02-12T17:45:43.594Z,92.86
2023-02-12T17:50:46.123Z,90.78
2023-02-12T17:55:48.267Z,90.90
2023-02-12T18:00:50.946Z,93.05
2023-02-12T18:05:53.199Z,93.95
2023-02-12T18:10:55.818Z,95.35
2023-02-12T18:15:58.067Z,95.63
2023-02-12T18:21:10.167Z,99.68
2023-02-12T18:26:16.113Z,99.58
2023-02-12T18:31:20.816Z,100.00
2023-02-12T18:36:23.320Z,100.00
2023-02-12T18:41:31.426Z,100.00
2023-02-12T18:46:33.735Z,100.00
2023-02-12T18:51:41.238Z,100.00
2023-02-12T18:56:45.507Z,100.00
2023-02-12T19:01:50.995Z,100.00
2023-02-12T19:06:54.750Z,100.00
2023-02-12T19:11:58.548Z,100.00
2023-02-12T19:17:01.076Z,100.00
2023-02-12T19:22:03.622Z,100.00
2023-02-12T19:33:42.398Z,100.00
2023-02-12T19:38:45.375Z,100.00
2023-02-12T19:43:48.296Z,100.00
2023-02-12T19:48:55.730Z,100.00
2023-02-12T19:54:03.261Z,100.00
2023-02-12T19:59:07.001Z,100.00
2023-02-12T20:04:14.075Z,100.00
2023-02-12T20:09:16.215Z,100.00
2023-02-12T20:14:21.020Z,100.00
2023-02-12T20:19:29.822Z,100.00
2023-02-12T20:24:34.468Z,100.00
2023-02-12T20:29:36.632Z,100.00
2023-02-12T20:34:50.587Z,100.00
2023-02-12T20:39:53.548Z,100.00
2023-02-12T20:44:55.755Z,100.00
2023-02-12T20:49:58.556Z,100.00
2023-02-12T20:55:00.750Z,100.00
2023-02-12T21:00:03.221Z,100.00
2023-02-12T21:05:06.249Z,100.00
2023-02-12T21:10:08.630Z,100.00
2023-02-12T21:15:10.705Z,100.00
2023-02-12T21:20:12.832Z,100.00
2023-02-12T21:25:15.073Z,100.00
2023-02-12T21:30:17.674Z,100.00
2023-02-12T21:35:20.125Z,100.00
2023-02-12T21:40:22.899Z,100.00
2023-02-12T21:45:25.425Z,100.00
2023-02-12T21:50:27.721Z,100.00
2023-02-12T21:55:30.018Z,100.00
2023-02-12T22:00:32.182Z,100.00
2023-02-12T22:05:34.856Z,100.00
2023-02-12T22:10:37.940Z,100.00
2023-02-12T22:15:40.294Z,100.00
2023-02-12T22:20:42.347Z,100.00
2023-02-12T22:25:44.476Z,100.00
2023-02-12T22:30:46.805Z,100.00
2023-02-12T22:35:49.179Z,100.00
2023-02-12T22:40:53.914Z,100.00
2023-02-12T22:45:56.125Z,100.00
2023-02-12T22:50:58.958Z,100.00
2023-02-12T22:56:06.135Z,100.00
2023-02-12T23:01:11.097Z,100.00
2023-02-12T23:06:16.569Z,100.00
2023-02-12T23:11:19.414Z,100.00
2023-02-12T23:16:22.522Z,100.00
2023-02-12T23:21:26.230Z,100.00
2023-02-12T23:26:30.180Z,100.00
2023-02-12T23:31:32.430Z,100.00
2023-02-12T23:36:34.723Z,100.00
2023-02-12T23:41:37.076Z,100.00
2023-02-12T23:46:39.273Z,100.00
2023-02-12T23:51:41.330Z,100.00
2023-02-12T23:56:43.525Z,100.00
